sensor_id;sensor_type;location;lat;lon;timestamp;P1;durP1;ratioP1;P2;durP2;ratioP2
20287;SDS011;10303;51.960;8.372;2023-06-22T00:00:49;2.80;;;2.60;;
20287;SDS011;10303;51.960;8.372;2023-06-22T00:03:17;2.80;;;2.60;;
20287;SDS011;10303;51.960;8.372;2023-06-22T00:05:45;3.30;;;3.10;;
20287;SDS011;10303;51.960;8.372;2023-06-22T00:08:14;2.80;;;2.60;;
20287;SDS011;10303;51.960;8.372;2023-06-22T00:10:41;3.10;;;2.90;;
20287;SDS011;10303;51.960;8.372;2023-06-22T00:13:08;2.60;;;2.40;;
20287;SDS011;10303;51.960;8.372;2023-06-22T00:15:36;2.20;;;2.10;;
20287;SDS011;10303;51.960;8.372;2023-06-22T00:18:05;3.43;;;2.33;;
20287;SDS011;10303;51.960;8.372;2023-06-22T00:20:32;3.23;;;3.03;;
20287;SDS011;10303;51.960;8.372;2023-06-22T00:23:01;2.77;;;2.57;;
20287;SDS011;10303;51.960;8.372;2023-06-22T00:25:39;2.73;;;2.53;;
20287;SDS011;10303;51.960;8.372;2023-06-22T00:28:05;2.43;;;2.23;;
20287;SDS011;10303;51.960;8.372;2023-06-22T00:30:35;4.07;;;2.60;;
20287;SDS011;10303;51.960;8.372;2023-06-22T00:33:01;2.77;;;2.40;;
20287;SDS011;10303;51.960;8.372;2023-06-22T00:35:27;2.70;;;2.50;;
20287;SDS011;10303;51.960;8.372;2023-06-22T00:37:57;5.37;;;2.83;;
20287;SDS011;10303;51.960;8.372;2023-06-22T00:40:30;2.63;;;2.47;;
20287;SDS011;10303;51.960;8.372;2023-06-22T00:42:57;3.90;;;2.80;;
20287;SDS011;10303;51.960;8.372;2023-06-22T00:45:24;2.63;;;2.43;;
20287;SDS011;10303;51.960;8.372;2023-06-22T00:47:52;2.60;;;2.40;;
20287;SDS011;10303;51.960;8.372;2023-06-22T00:50:21;2.93;;;2.73;;
20287;SDS011;10303;51.960;8.372;2023-06-22T00:52:56;2.43;;;2.33;;
20287;SDS011;10303;51.960;8.372;2023-06-22T00:55:25;3.47;;;3.03;;
20287;SDS011;10303;51.960;8.372;2023-06-22T00:57:52;2.70;;;2.50;;
20287;SDS011;10303;51.960;8.372;2023-06-22T01:00:25;5.20;;;2.57;;
20287;SDS011;10303;51.960;8.372;2023-06-22T01:02:52;2.60;;;2.40;;
20287;SDS011;10303;51.960;8.372;2023-06-22T01:05:19;2.57;;;2.37;;
20287;SDS011;10303;51.960;8.372;2023-06-22T01:08:04;5.27;;;2.43;;
20287;SDS011;10303;51.960;8.372;2023-06-22T01:11:27;2.50;;;2.30;;
20287;SDS011;10303;51.960;8.372;2023-06-22T01:16:49;2.80;;;2.60;;
20287;SDS011;10303;51.960;8.372;2023-06-22T01:22:17;3.27;;;2.47;;
20287;SDS011;10303;51.960;8.372;2023-06-22T01:30:28;2.90;;;2.70;;
20287;SDS011;10303;51.960;8.372;2023-06-22T01:32:59;2.63;;;2.43;;
20287;SDS011;10303;51.960;8.372;2023-06-22T01:35:29;2.70;;;2.50;;
20287;SDS011;10303;51.960;8.372;2023-06-22T01:37:55;2.73;;;2.53;;
20287;SDS011;10303;51.960;8.372;2023-06-22T01:40:21;3.87;;;2.63;;
20287;SDS011;10303;51.960;8.372;2023-06-22T01:42:50;2.90;;;2.70;;
20287;SDS011;10303;51.960;8.372;2023-06-22T01:45:17;3.30;;;3.00;;
20287;SDS011;10303;51.960;8.372;2023-06-22T01:47:44;3.23;;;3.03;;
20287;SDS011;10303;51.960;8.372;2023-06-22T01:50:10;2.63;;;2.43;;
20287;SDS011;10303;51.960;8.372;2023-06-22T01:52:37;2.87;;;2.67;;
20287;SDS011;10303;51.960;8.372;2023-06-22T01:55:03;3.30;;;3.00;;
20287;SDS011;10303;51.960;8.372;2023-06-22T01:57:31;3.53;;;2.47;;
20287;SDS011;10303;51.960;8.372;2023-06-22T02:00:04;2.83;;;2.63;;
20287;SDS011;10303;51.960;8.372;2023-06-22T02:05:33;3.17;;;2.97;;
20287;SDS011;10303;51.960;8.372;2023-06-22T02:08:17;2.70;;;2.50;;
20287;SDS011;10303;51.960;8.372;2023-06-22T02:10:49;3.03;;;2.83;;
20287;SDS011;10303;51.960;8.372;2023-06-22T02:13:19;3.03;;;2.70;;
20287;SDS011;10303;51.960;8.372;2023-06-22T02:15:46;3.40;;;2.70;;
20287;SDS011;10303;51.960;8.372;2023-06-22T02:18:13;3.07;;;2.87;;
20287;SDS011;10303;51.960;8.372;2023-06-22T02:20:40;2.67;;;2.47;;
20287;SDS011;10303;51.960;8.372;2023-06-22T02:23:06;6.40;;;2.27;;
20287;SDS011;10303;51.960;8.372;2023-06-22T02:25:34;3.20;;;2.90;;
20287;SDS011;10303;51.960;8.372;2023-06-22T02:28:01;6.97;;;3.03;;
20287;SDS011;10303;51.960;8.372;2023-06-22T02:30:28;3.20;;;2.93;;
20287;SDS011;10303;51.960;8.372;2023-06-22T02:32:54;3.43;;;3.23;;
20287;SDS011;10303;51.960;8.372;2023-06-22T02:35:27;6.57;;;3.63;;
20287;SDS011;10303;51.960;8.372;2023-06-22T02:37:59;3.50;;;3.20;;
20287;SDS011;10303;51.960;8.372;2023-06-22T02:40:27;3.40;;;3.20;;
20287;SDS011;10303;51.960;8.372;2023-06-22T02:42:55;3.47;;;3.27;;
20287;SDS011;10303;51.960;8.372;2023-06-22T02:45:27;3.30;;;3.07;;
20287;SDS011;10303;51.960;8.372;2023-06-22T02:47:54;3.47;;;3.17;;
20287;SDS011;10303;51.960;8.372;2023-06-22T02:50:21;3.30;;;3.07;;
20287;SDS011;10303;51.960;8.372;2023-06-22T02:52:48;3.30;;;3.10;;
20287;SDS011;10303;51.960;8.372;2023-06-22T02:55:14;3.70;;;3.20;;
20287;SDS011;10303;51.960;8.372;2023-06-22T02:57:43;3.73;;;3.43;;
20287;SDS011;10303;51.960;8.372;2023-06-22T03:00:12;3.40;;;3.10;;
20287;SDS011;10303;51.960;8.372;2023-06-22T03:02:45;3.73;;;3.07;;
20287;SDS011;10303;51.960;8.372;2023-06-22T03:05:13;2.80;;;2.57;;
20287;SDS011;10303;51.960;8.372;2023-06-22T03:07:40;3.53;;;2.83;;
20287;SDS011;10303;51.960;8.372;2023-06-22T03:10:08;3.27;;;3.07;;
20287;SDS011;10303;51.960;8.372;2023-06-22T03:12:36;2.90;;;2.70;;
20287;SDS011;10303;51.960;8.372;2023-06-22T03:15:13;3.73;;;3.43;;
20287;SDS011;10303;51.960;8.372;2023-06-22T03:17:39;3.07;;;2.87;;
20287;SDS011;10303;51.960;8.372;2023-06-22T03:20:07;3.43;;;3.23;;
20287;SDS011;10303;51.960;8.372;2023-06-22T03:22:36;4.83;;;3.37;;
20287;SDS011;10303;51.960;8.372;2023-06-22T03:25:08;3.07;;;2.87;;
20287;SDS011;10303;51.960;8.372;2023-06-22T03:27:44;3.70;;;3.03;;
20287;SDS011;10303;51.960;8.372;2023-06-22T03:30:10;3.83;;;3.53;;
20287;SDS011;10303;51.960;8.372;2023-06-22T03:32:37;4.23;;;3.93;;
20287;SDS011;10303;51.960;8.372;2023-06-22T03:35:05;3.93;;;3.63;;
20287;SDS011;10303;51.960;8.372;2023-06-22T03:37:34;4.27;;;3.83;;
20287;SDS011;10303;51.960;8.372;2023-06-22T03:40:01;3.87;;;3.53;;
20287;SDS011;10303;51.960;8.372;2023-06-22T03:42:30;3.37;;;3.17;;
20287;SDS011;10303;51.960;8.372;2023-06-22T03:44:56;3.70;;;3.40;;
20287;SDS011;10303;51.960;8.372;2023-06-22T03:47:22;4.37;;;3.97;;
20287;SDS011;10303;51.960;8.372;2023-06-22T03:49:48;4.27;;;3.97;;
20287;SDS011;10303;51.960;8.372;2023-06-22T03:52:15;3.63;;;3.37;;
20287;SDS011;10303;51.960;8.372;2023-06-22T03:54:41;3.70;;;3.40;;
20287;SDS011;10303;51.960;8.372;2023-06-22T03:57:08;4.03;;;3.73;;
20287;SDS011;10303;51.960;8.372;2023-06-22T03:59:34;4.27;;;3.87;;
20287;SDS011;10303;51.960;8.372;2023-06-22T04:02:00;4.10;;;3.80;;
20287;SDS011;10303;51.960;8.372;2023-06-22T04:04:26;5.10;;;4.70;;
20287;SDS011;10303;51.960;8.372;2023-06-22T04:06:53;5.00;;;4.60;;
20287;SDS011;10303;51.960;8.372;2023-06-22T04:09:19;7.27;;;5.43;;
20287;SDS011;10303;51.960;8.372;2023-06-22T04:11:46;4.70;;;4.30;;
20287;SDS011;10303;51.960;8.372;2023-06-22T04:14:13;5.43;;;4.43;;
20287;SDS011;10303;51.960;8.372;2023-06-22T04:16:39;6.80;;;4.80;;
20287;SDS011;10303;51.960;8.372;2023-06-22T04:19:04;5.20;;;4.80;;
20287;SDS011;10303;51.960;8.372;2023-06-22T04:21:31;4.57;;;4.10;;
20287;SDS011;10303;51.960;8.372;2023-06-22T04:23:57;4.67;;;4.27;;
20287;SDS011;10303;51.960;8.372;2023-06-22T04:26:23;6.47;;;5.40;;
20287;SDS011;10303;51.960;8.372;2023-06-22T04:28:49;4.97;;;4.57;;
20287;SDS011;10303;51.960;8.372;2023-06-22T04:31:17;4.77;;;4.37;;
20287;SDS011;10303;51.960;8.372;2023-06-22T04:33:44;5.23;;;4.83;;
20287;SDS011;10303;51.960;8.372;2023-06-22T04:36:11;4.40;;;4.00;;
20287;SDS011;10303;51.960;8.372;2023-06-22T04:38:40;5.10;;;4.70;;
20287;SDS011;10303;51.960;8.372;2023-06-22T04:41:07;5.10;;;4.60;;
20287;SDS011;10303;51.960;8.372;2023-06-22T04:43:49;4.37;;;3.97;;
20287;SDS011;10303;51.960;8.372;2023-06-22T04:46:19;5.20;;;4.70;;
20287;SDS011;10303;51.960;8.372;2023-06-22T04:48:45;4.87;;;4.37;;
20287;SDS011;10303;51.960;8.372;2023-06-22T04:51:12;4.10;;;3.80;;
20287;SDS011;10303;51.960;8.372;2023-06-22T04:53:38;5.30;;;4.80;;
20287;SDS011;10303;51.960;8.372;2023-06-22T04:56:06;5.30;;;4.80;;
20287;SDS011;10303;51.960;8.372;2023-06-22T04:58:33;5.47;;;4.83;;
20287;SDS011;10303;51.960;8.372;2023-06-22T05:00:59;4.10;;;3.80;;
20287;SDS011;10303;51.960;8.372;2023-06-22T05:03:25;5.67;;;5.17;;
20287;SDS011;10303;51.960;8.372;2023-06-22T05:05:52;4.70;;;4.30;;
20287;SDS011;10303;51.960;8.372;2023-06-22T05:08:18;6.43;;;5.60;;
20287;SDS011;10303;51.960;8.372;2023-06-22T05:10:44;5.20;;;4.70;;
20287;SDS011;10303;51.960;8.372;2023-06-22T05:13:10;4.68;;;4.28;;
20287;SDS011;10303;51.960;8.372;2023-06-22T05:15:36;5.40;;;4.90;;
20287;SDS011;10303;51.960;8.372;2023-06-22T05:18:05;4.75;;;4.35;;
20287;SDS011;10303;51.960;8.372;2023-06-22T05:20:31;5.28;;;4.82;;
20287;SDS011;10303;51.960;8.372;2023-06-22T05:22:59;5.00;;;4.50;;
20287;SDS011;10303;51.960;8.372;2023-06-22T05:25:25;5.18;;;4.78;;
20287;SDS011;10303;51.960;8.372;2023-06-22T05:27:52;5.57;;;5.07;;
20287;SDS011;10303;51.960;8.372;2023-06-22T05:30:18;4.72;;;4.32;;
20287;SDS011;10303;51.960;8.372;2023-06-22T05:32:44;6.50;;;5.95;;
20287;SDS011;10303;51.960;8.372;2023-06-22T05:35:09;5.55;;;4.88;;
20287;SDS011;10303;51.960;8.372;2023-06-22T05:37:35;5.72;;;5.22;;
20287;SDS011;10303;51.960;8.372;2023-06-22T05:40:01;6.20;;;5.55;;
20287;SDS011;10303;51.960;8.372;2023-06-22T05:42:28;5.82;;;4.90;;
20287;SDS011;10303;51.960;8.372;2023-06-22T05:44:54;5.22;;;4.72;;
20287;SDS011;10303;51.960;8.372;2023-06-22T05:47:20;4.80;;;4.40;;
20287;SDS011;10303;51.960;8.372;2023-06-22T05:49:48;4.88;;;4.47;;
20287;SDS011;10303;51.960;8.372;2023-06-22T05:52:13;5.28;;;4.78;;
20287;SDS011;10303;51.960;8.372;2023-06-22T05:54:39;4.68;;;4.28;;
20287;SDS011;10303;51.960;8.372;2023-06-22T05:57:06;5.65;;;5.15;;
20287;SDS011;10303;51.960;8.372;2023-06-22T05:59:32;4.95;;;4.55;;
20287;SDS011;10303;51.960;8.372;2023-06-22T06:01:58;6.38;;;5.57;;
20287;SDS011;10303;51.960;8.372;2023-06-22T06:04:24;5.75;;;5.13;;
20287;SDS011;10303;51.960;8.372;2023-06-22T06:06:50;6.53;;;5.93;;
20287;SDS011;10303;51.960;8.372;2023-06-22T06:09:16;5.20;;;4.70;;
20287;SDS011;10303;51.960;8.372;2023-06-22T06:11:42;5.07;;;4.57;;
20287;SDS011;10303;51.960;8.372;2023-06-22T06:14:08;5.30;;;4.80;;
20287;SDS011;10303;51.960;8.372;2023-06-22T06:16:34;4.65;;;4.25;;
20287;SDS011;10303;51.960;8.372;2023-06-22T06:19:00;5.60;;;4.72;;
20287;SDS011;10303;51.960;8.372;2023-06-22T06:21:26;5.22;;;4.82;;
20287;SDS011;10303;51.960;8.372;2023-06-22T06:23:52;5.70;;;5.20;;
20287;SDS011;10303;51.960;8.372;2023-06-22T06:26:18;5.88;;;5.40;;
20287;SDS011;10303;51.960;8.372;2023-06-22T06:28:55;6.30;;;5.63;;
20287;SDS011;10303;51.960;8.372;2023-06-22T06:31:22;5.95;;;5.40;;
20287;SDS011;10303;51.960;8.372;2023-06-22T06:33:48;6.80;;;6.10;;
20287;SDS011;10303;51.960;8.372;2023-06-22T06:36:14;5.78;;;5.28;;
20287;SDS011;10303;51.960;8.372;2023-06-22T06:38:41;5.82;;;5.32;;
20287;SDS011;10303;51.960;8.372;2023-06-22T06:41:07;5.72;;;5.22;;
20287;SDS011;10303;51.960;8.372;2023-06-22T06:43:33;5.80;;;5.25;;
20287;SDS011;10303;51.960;8.372;2023-06-22T06:45:59;5.32;;;4.82;;
20287;SDS011;10303;51.960;8.372;2023-06-22T06:48:25;5.82;;;5.32;;
20287;SDS011;10303;51.960;8.372;2023-06-22T06:50:51;5.85;;;4.85;;
20287;SDS011;10303;51.960;8.372;2023-06-22T06:53:17;4.72;;;4.32;;
20287;SDS011;10303;51.960;8.372;2023-06-22T06:55:43;4.97;;;4.57;;
20287;SDS011;10303;51.960;8.372;2023-06-22T06:58:10;5.18;;;4.68;;
20287;SDS011;10303;51.960;8.372;2023-06-22T07:00:38;5.80;;;5.30;;
20287;SDS011;10303;51.960;8.372;2023-06-22T07:03:04;4.53;;;4.22;;
20287;SDS011;10303;51.960;8.372;2023-06-22T07:05:32;4.60;;;4.30;;
20287;SDS011;10303;51.960;8.372;2023-06-22T07:07:59;4.80;;;4.40;;
20287;SDS011;10303;51.960;8.372;2023-06-22T07:10:24;5.45;;;5.05;;
20287;SDS011;10303;51.960;8.372;2023-06-22T07:12:51;5.00;;;4.60;;
20287;SDS011;10303;51.960;8.372;2023-06-22T07:15:17;4.82;;;4.43;;
20287;SDS011;10303;51.960;8.372;2023-06-22T07:17:43;8.32;;;4.60;;
20287;SDS011;10303;51.960;8.372;2023-06-22T07:20:09;5.38;;;4.30;;
20287;SDS011;10303;51.960;8.372;2023-06-22T07:22:37;4.80;;;4.43;;
20287;SDS011;10303;51.960;8.372;2023-06-22T07:25:05;5.38;;;4.88;;
20287;SDS011;10303;51.960;8.372;2023-06-22T07:27:44;4.30;;;4.00;;
20287;SDS011;10303;51.960;8.372;2023-06-22T07:30:21;4.75;;;4.38;;
20287;SDS011;10303;51.960;8.372;2023-06-22T07:32:48;4.28;;;3.92;;
20287;SDS011;10303;51.960;8.372;2023-06-22T07:35:14;4.28;;;3.97;;
20287;SDS011;10303;51.960;8.372;2023-06-22T07:37:41;4.53;;;4.18;;
20287;SDS011;10303;51.960;8.372;2023-06-22T07:40:08;4.60;;;4.30;;
20287;SDS011;10303;51.960;8.372;2023-06-22T07:42:35;4.57;;;4.28;;
20287;SDS011;10303;51.960;8.372;2023-06-22T07:45:02;4.35;;;4.05;;
20287;SDS011;10303;51.960;8.372;2023-06-22T07:47:29;4.82;;;4.45;;
20287;SDS011;10303;51.960;8.372;2023-06-22T07:49:57;5.13;;;4.65;;
20287;SDS011;10303;51.960;8.372;2023-06-22T07:52:26;5.55;;;5.05;;
20287;SDS011;10303;51.960;8.372;2023-06-22T07:54:56;5.00;;;4.60;;
20287;SDS011;10303;51.960;8.372;2023-06-22T07:57:22;5.03;;;4.63;;
20287;SDS011;10303;51.960;8.372;2023-06-22T07:59:48;4.82;;;4.43;;
20287;SDS011;10303;51.960;8.372;2023-06-22T08:02:14;5.28;;;4.88;;
20287;SDS011;10303;51.960;8.372;2023-06-22T08:04:40;4.57;;;4.28;;
20287;SDS011;10303;51.960;8.372;2023-06-22T08:07:06;4.55;;;4.25;;
20287;SDS011;10303;51.960;8.372;2023-06-22T08:09:33;6.43;;;4.60;;
20287;SDS011;10303;51.960;8.372;2023-06-22T08:11:59;6.30;;;5.80;;
20287;SDS011;10303;51.960;8.372;2023-06-22T08:14:25;5.68;;;5.10;;
20287;SDS011;10303;51.960;8.372;2023-06-22T08:16:52;4.80;;;4.50;;
20287;SDS011;10303;51.960;8.372;2023-06-22T08:19:18;5.18;;;4.85;;
20287;SDS011;10303;51.960;8.372;2023-06-22T08:21:44;5.10;;;4.65;;
20287;SDS011;10303;51.960;8.372;2023-06-22T08:24:10;4.30;;;4.00;;
20287;SDS011;10303;51.960;8.372;2023-06-22T08:26:36;5.63;;;5.15;;
20287;SDS011;10303;51.960;8.372;2023-06-22T08:29:05;5.30;;;4.80;;
20287;SDS011;10303;51.960;8.372;2023-06-22T08:31:31;5.78;;;5.05;;
20287;SDS011;10303;51.960;8.372;2023-06-22T08:33:59;6.38;;;4.45;;
20287;SDS011;10303;51.960;8.372;2023-06-22T08:36:25;4.85;;;4.47;;
20287;SDS011;10303;51.960;8.372;2023-06-22T08:38:54;5.03;;;4.63;;
20287;SDS011;10303;51.960;8.372;2023-06-22T08:41:28;5.10;;;4.70;;
20287;SDS011;10303;51.960;8.372;2023-06-22T08:43:55;5.00;;;4.60;;
20287;SDS011;10303;51.960;8.372;2023-06-22T08:46:21;5.18;;;4.78;;
20287;SDS011;10303;51.960;8.372;2023-06-22T08:48:49;5.10;;;4.47;;
20287;SDS011;10303;51.960;8.372;2023-06-22T08:51:15;4.28;;;3.97;;
20287;SDS011;10303;51.960;8.372;2023-06-22T08:53:42;4.68;;;4.13;;
20287;SDS011;10303;51.960;8.372;2023-06-22T08:56:10;4.43;;;4.13;;
20287;SDS011;10303;51.960;8.372;2023-06-22T08:58:36;4.80;;;4.45;;
20287;SDS011;10303;51.960;8.372;2023-06-22T09:01:02;5.15;;;4.75;;
20287;SDS011;10303;51.960;8.372;2023-06-22T09:03:28;5.15;;;4.75;;
20287;SDS011;10303;51.960;8.372;2023-06-22T09:05:54;4.70;;;4.40;;
20287;SDS011;10303;51.960;8.372;2023-06-22T09:08:20;3.88;;;3.58;;
20287;SDS011;10303;51.960;8.372;2023-06-22T09:10:46;3.78;;;3.58;;
20287;SDS011;10303;51.960;8.372;2023-06-22T09:13:12;6.43;;;4.32;;
20287;SDS011;10303;51.960;8.372;2023-06-22T09:15:38;4.00;;;3.70;;
20287;SDS011;10303;51.960;8.372;2023-06-22T09:18:04;4.68;;;4.28;;
20287;SDS011;10303;51.960;8.372;2023-06-22T09:20:30;5.75;;;5.35;;
20287;SDS011;10303;51.960;8.372;2023-06-22T09:22:56;5.65;;;5.25;;
20287;SDS011;10303;51.960;8.372;2023-06-22T09:25:22;5.75;;;4.90;;
20287;SDS011;10303;51.960;8.372;2023-06-22T09:27:48;6.00;;;5.40;;
20287;SDS011;10303;51.960;8.372;2023-06-22T09:30:14;5.78;;;5.35;;
20287;SDS011;10303;51.960;8.372;2023-06-22T09:32:40;6.25;;;5.65;;
20287;SDS011;10303;51.960;8.372;2023-06-22T09:35:06;6.18;;;5.68;;
20287;SDS011;10303;51.960;8.372;2023-06-22T09:37:33;5.07;;;4.68;;
20287;SDS011;10303;51.960;8.372;2023-06-22T09:39:59;6.18;;;5.70;;
20287;SDS011;10303;51.960;8.372;2023-06-22T09:42:25;5.45;;;5.03;;
20287;SDS011;10303;51.960;8.372;2023-06-22T09:44:51;4.65;;;4.32;;
20287;SDS011;10303;51.960;8.372;2023-06-22T09:47:17;4.88;;;4.55;;
20287;SDS011;10303;51.960;8.372;2023-06-22T09:49:43;5.25;;;4.85;;
20287;SDS011;10303;51.960;8.372;2023-06-22T09:52:09;6.00;;;5.57;;
20287;SDS011;10303;51.960;8.372;2023-06-22T09:54:36;5.07;;;4.78;;
20287;SDS011;10303;51.960;8.372;2023-06-22T09:57:02;4.43;;;4.10;;
20287;SDS011;10303;51.960;8.372;2023-06-22T09:59:28;4.60;;;4.20;;
20287;SDS011;10303;51.960;8.372;2023-06-22T10:01:54;5.18;;;4.78;;
20287;SDS011;10303;51.960;8.372;2023-06-22T10:04:20;5.80;;;5.32;;
20287;SDS011;10303;51.960;8.372;2023-06-22T10:06:46;4.75;;;4.45;;
20287;SDS011;10303;51.960;8.372;2023-06-22T10:09:13;5.88;;;5.40;;
20287;SDS011;10303;51.960;8.372;2023-06-22T10:11:39;5.38;;;5.00;;
20287;SDS011;10303;51.960;8.372;2023-06-22T10:14:05;6.20;;;5.70;;
20287;SDS011;10303;51.960;8.372;2023-06-22T10:16:31;5.32;;;4.93;;
20287;SDS011;10303;51.960;8.372;2023-06-22T10:18:58;5.68;;;5.28;;
20287;SDS011;10303;51.960;8.372;2023-06-22T10:21:24;5.85;;;5.00;;
20287;SDS011;10303;51.960;8.372;2023-06-22T10:23:52;5.07;;;4.68;;
20287;SDS011;10303;51.960;8.372;2023-06-22T10:26:18;5.30;;;4.90;;
20287;SDS011;10303;51.960;8.372;2023-06-22T10:28:44;5.25;;;4.85;;
20287;SDS011;10303;51.960;8.372;2023-06-22T10:31:10;5.05;;;4.72;;
20287;SDS011;10303;51.960;8.372;2023-06-22T10:33:36;5.07;;;4.78;;
20287;SDS011;10303;51.960;8.372;2023-06-22T10:36:03;5.63;;;5.07;;
20287;SDS011;10303;51.960;8.372;2023-06-22T10:38:29;4.90;;;4.50;;
20287;SDS011;10303;51.960;8.372;2023-06-22T10:40:55;4.70;;;4.40;;
20287;SDS011;10303;51.960;8.372;2023-06-22T10:43:21;5.45;;;5.05;;
20287;SDS011;10303;51.960;8.372;2023-06-22T10:45:47;4.22;;;4.03;;
20287;SDS011;10303;51.960;8.372;2023-06-22T10:48:13;4.35;;;4.05;;
20287;SDS011;10303;51.960;8.372;2023-06-22T10:50:39;4.65;;;4.25;;
20287;SDS011;10303;51.960;8.372;2023-06-22T10:53:05;4.63;;;4.32;;
20287;SDS011;10303;51.960;8.372;2023-06-22T10:55:31;5.03;;;4.68;;
20287;SDS011;10303;51.960;8.372;2023-06-22T10:57:57;4.28;;;3.97;;
20287;SDS011;10303;51.960;8.372;2023-06-22T11:00:23;4.00;;;3.72;;
20287;SDS011;10303;51.960;8.372;2023-06-22T11:02:49;4.88;;;4.57;;
20287;SDS011;10303;51.960;8.372;2023-06-22T11:05:15;4.80;;;4.50;;
20287;SDS011;10303;51.960;8.372;2023-06-22T11:07:41;4.72;;;4.32;;
20287;SDS011;10303;51.960;8.372;2023-06-22T11:10:09;4.50;;;4.20;;
20287;SDS011;10303;51.960;8.372;2023-06-22T11:12:35;4.30;;;4.03;;
20287;SDS011;10303;51.960;8.372;2023-06-22T11:15:02;5.00;;;4.60;;
20287;SDS011;10303;51.960;8.372;2023-06-22T11:17:28;5.10;;;4.70;;
20287;SDS011;10303;51.960;8.372;2023-06-22T11:19:54;5.00;;;4.60;;
20287;SDS011;10303;51.960;8.372;2023-06-22T11:22:20;4.72;;;4.43;;
20287;SDS011;10303;51.960;8.372;2023-06-22T11:24:46;5.03;;;4.63;;
20287;SDS011;10303;51.960;8.372;2023-06-22T11:27:11;5.35;;;5.05;;
20287;SDS011;10303;51.960;8.372;2023-06-22T11:29:37;4.65;;;4.35;;
20287;SDS011;10303;51.960;8.372;2023-06-22T11:32:05;5.47;;;5.18;;
20287;SDS011;10303;51.960;8.372;2023-06-22T11:34:32;5.78;;;4.55;;
20287;SDS011;10303;51.960;8.372;2023-06-22T11:36:59;5.25;;;4.57;;
20287;SDS011;10303;51.960;8.372;2023-06-22T11:39:24;4.88;;;4.45;;
20287;SDS011;10303;51.960;8.372;2023-06-22T11:41:50;4.82;;;4.53;;
20287;SDS011;10303;51.960;8.372;2023-06-22T11:44:17;4.45;;;4.05;;
20287;SDS011;10303;51.960;8.372;2023-06-22T11:46:42;4.07;;;3.78;;
20287;SDS011;10303;51.960;8.372;2023-06-22T11:49:08;5.00;;;4.70;;
20287;SDS011;10303;51.960;8.372;2023-06-22T11:51:34;4.53;;;4.13;;
20287;SDS011;10303;51.960;8.372;2023-06-22T11:54:00;4.40;;;4.15;;
20287;SDS011;10303;51.960;8.372;2023-06-22T11:56:27;4.43;;;4.13;;
20287;SDS011;10303;51.960;8.372;2023-06-22T11:58:53;13.73;;;4.22;;
20287;SDS011;10303;51.960;8.372;2023-06-22T12:01:19;4.72;;;4.43;;
20287;SDS011;10303;51.960;8.372;2023-06-22T12:03:46;5.53;;;5.13;;
20287;SDS011;10303;51.960;8.372;2023-06-22T12:06:13;5.53;;;5.03;;
20287;SDS011;10303;51.960;8.372;2023-06-22T12:08:39;5.90;;;5.32;;
20287;SDS011;10303;51.960;8.372;2023-06-22T12:11:05;6.13;;;5.72;;
20287;SDS011;10303;51.960;8.372;2023-06-22T12:13:31;4.70;;;4.40;;
20287;SDS011;10303;51.960;8.372;2023-06-22T12:15:57;5.07;;;4.75;;
20287;SDS011;10303;51.960;8.372;2023-06-22T12:18:23;5.43;;;4.93;;
20287;SDS011;10303;51.960;8.372;2023-06-22T12:20:49;4.70;;;4.32;;
20287;SDS011;10303;51.960;8.372;2023-06-22T12:23:15;5.22;;;4.38;;
20287;SDS011;10303;51.960;8.372;2023-06-22T12:25:41;6.25;;;4.63;;
20287;SDS011;10303;51.960;8.372;2023-06-22T12:28:07;5.90;;;4.25;;
20287;SDS011;10303;51.960;8.372;2023-06-22T12:30:33;5.82;;;5.28;;
20287;SDS011;10303;51.960;8.372;2023-06-22T12:32:59;5.50;;;4.60;;
20287;SDS011;10303;51.960;8.372;2023-06-22T12:35:25;4.90;;;4.60;;
20287;SDS011;10303;51.960;8.372;2023-06-22T12:37:51;6.05;;;4.55;;
20287;SDS011;10303;51.960;8.372;2023-06-22T12:40:18;7.65;;;5.10;;
20287;SDS011;10303;51.960;8.372;2023-06-22T12:42:44;5.82;;;5.38;;
20287;SDS011;10303;51.960;8.372;2023-06-22T12:45:11;5.60;;;4.88;;
20287;SDS011;10303;51.960;8.372;2023-06-22T12:47:37;5.00;;;4.60;;
20287;SDS011;10303;51.960;8.372;2023-06-22T12:50:04;4.80;;;4.40;;
20287;SDS011;10303;51.960;8.372;2023-06-22T12:52:30;4.97;;;4.68;;
20287;SDS011;10303;51.960;8.372;2023-06-22T12:54:59;5.90;;;5.40;;
20287;SDS011;10303;51.960;8.372;2023-06-22T12:57:26;5.18;;;4.85;;
20287;SDS011;10303;51.960;8.372;2023-06-22T12:59:51;6.68;;;5.47;;
20287;SDS011;10303;51.960;8.372;2023-06-22T13:02:17;5.72;;;5.30;;
20287;SDS011;10303;51.960;8.372;2023-06-22T13:04:43;6.03;;;5.53;;
20287;SDS011;10303;51.960;8.372;2023-06-22T13:07:09;5.50;;;5.10;;
20287;SDS011;10303;51.960;8.372;2023-06-22T13:09:36;5.03;;;4.63;;
20287;SDS011;10303;51.960;8.372;2023-06-22T13:12:02;5.90;;;5.32;;
20287;SDS011;10303;51.960;8.372;2023-06-22T13:14:29;6.57;;;5.97;;
20287;SDS011;10303;51.960;8.372;2023-06-22T13:16:55;6.45;;;5.85;;
20287;SDS011;10303;51.960;8.372;2023-06-22T13:19:21;7.25;;;6.65;;
20287;SDS011;10303;51.960;8.372;2023-06-22T13:21:47;7.43;;;6.72;;
20287;SDS011;10303;51.960;8.372;2023-06-22T13:24:13;7.50;;;6.72;;
20287;SDS011;10303;51.960;8.372;2023-06-22T13:26:39;7.18;;;6.47;;
20287;SDS011;10303;51.960;8.372;2023-06-22T13:29:05;6.90;;;6.15;;
20287;SDS011;10303;51.960;8.372;2023-06-22T13:31:31;7.15;;;5.88;;
20287;SDS011;10303;51.960;8.372;2023-06-22T13:33:57;6.60;;;6.00;;
20287;SDS011;10303;51.960;8.372;2023-06-22T13:36:23;7.15;;;6.53;;
20287;SDS011;10303;51.960;8.372;2023-06-22T13:38:49;7.28;;;6.57;;
20287;SDS011;10303;51.960;8.372;2023-06-22T13:41:15;6.97;;;6.28;;
20287;SDS011;10303;51.960;8.372;2023-06-22T13:43:41;8.35;;;7.30;;
20287;SDS011;10303;51.960;8.372;2023-06-22T13:46:07;7.18;;;6.50;;
20287;SDS011;10303;51.960;8.372;2023-06-22T13:48:33;6.15;;;5.68;;
20287;SDS011;10303;51.960;8.372;2023-06-22T13:50:59;7.00;;;6.40;;
20287;SDS011;10303;51.960;8.372;2023-06-22T13:53:25;7.60;;;5.60;;
20287;SDS011;10303;51.960;8.372;2023-06-22T13:55:51;6.75;;;6.00;;
20287;SDS011;10303;51.960;8.372;2023-06-22T13:58:17;7.63;;;6.93;;
20287;SDS011;10303;51.960;8.372;2023-06-22T14:00:45;7.20;;;6.55;;
20287;SDS011;10303;51.960;8.372;2023-06-22T14:03:12;8.00;;;7.20;;
20287;SDS011;10303;51.960;8.372;2023-06-22T14:05:41;9.50;;;6.85;;
20287;SDS011;10303;51.960;8.372;2023-06-22T14:08:09;8.93;;;8.05;;
20287;SDS011;10303;51.960;8.372;2023-06-22T14:10:34;7.43;;;6.55;;
20287;SDS011;10303;51.960;8.372;2023-06-22T14:13:00;7.65;;;6.90;;
20287;SDS011;10303;51.960;8.372;2023-06-22T14:15:27;7.82;;;7.03;;
20287;SDS011;10303;51.960;8.372;2023-06-22T14:17:53;7.40;;;6.70;;
20287;SDS011;10303;51.960;8.372;2023-06-22T14:20:19;7.20;;;6.45;;
20287;SDS011;10303;51.960;8.372;2023-06-22T14:22:46;7.82;;;7.03;;
20287;SDS011;10303;51.960;8.372;2023-06-22T14:25:12;7.63;;;6.88;;
20287;SDS011;10303;51.960;8.372;2023-06-22T14:27:38;9.18;;;7.35;;
20287;SDS011;10303;51.960;8.372;2023-06-22T14:30:04;8.40;;;6.68;;
20287;SDS011;10303;51.960;8.372;2023-06-22T14:32:31;7.43;;;6.60;;
20287;SDS011;10303;51.960;8.372;2023-06-22T14:34:57;7.10;;;6.40;;
20287;SDS011;10303;51.960;8.372;2023-06-22T14:37:23;8.18;;;7.40;;
20287;SDS011;10303;51.960;8.372;2023-06-22T14:39:49;7.15;;;6.45;;
20287;SDS011;10303;51.960;8.372;2023-06-22T14:42:15;7.50;;;6.80;;
20287;SDS011;10303;51.960;8.372;2023-06-22T14:44:41;7.10;;;6.40;;
20287;SDS011;10303;51.960;8.372;2023-06-22T14:47:09;7.65;;;6.95;;
20287;SDS011;10303;51.960;8.372;2023-06-22T14:49:34;7.68;;;6.53;;
20287;SDS011;10303;51.960;8.372;2023-06-22T14:52:02;7.65;;;6.95;;
20287;SDS011;10303;51.960;8.372;2023-06-22T14:54:28;6.35;;;5.85;;
20287;SDS011;10303;51.960;8.372;2023-06-22T14:56:54;6.85;;;6.25;;
20287;SDS011;10303;51.960;8.372;2023-06-22T14:59:21;7.85;;;7.15;;
20287;SDS011;10303;51.960;8.372;2023-06-22T15:01:47;6.72;;;6.20;;